createdAt,value
2022-07-26T00:01:47.169Z,26.20
2022-07-26T00:04:14.001Z,26.23
2022-07-26T00:06:40.720Z,26.24
2022-07-26T00:09:07.843Z,26.26
2022-07-26T00:11:35.011Z,26.24
2022-07-26T00:14:04.111Z,26.22
2022-07-26T00:16:31.312Z,26.14
2022-07-26T00:18:58.100Z,26.12
2022-07-26T00:21:25.244Z,26.09
2022-07-26T00:23:52.209Z,26.10
2022-07-26T00:26:18.972Z,25.97
2022-07-26T00:28:45.640Z,25.99
2022-07-26T00:31:12.951Z,26.02
2022-07-26T00:33:40.315Z,25.96
2022-07-26T00:36:07.748Z,25.93
2022-07-26T00:38:34.650Z,25.88
2022-07-26T00:41:02.102Z,25.84
2022-07-26T00:43:28.862Z,25.81
2022-07-26T00:45:55.685Z,25.75
2022-07-26T00:48:22.407Z,25.67
2022-07-26T00:50:49.200Z,25.59
2022-07-26T00:53:19.592Z,25.58
2022-07-26T00:55:46.478Z,25.55
2022-07-26T00:58:13.666Z,25.61
2022-07-26T01:00:40.424Z,25.61
2022-07-26T01:03:07.427Z,25.51
2022-07-26T01:05:35.531Z,25.42
2022-07-26T01:08:02.290Z,25.27
2022-07-26T01:10:28.995Z,25.27
2022-07-26T01:12:55.660Z,25.28
2022-07-26T01:15:23.451Z,25.35
2022-07-26T01:17:50.199Z,25.30
2022-07-26T01:20:16.949Z,25.33
2022-07-26T01:22:43.870Z,25.37
2022-07-26T01:25:10.758Z,25.40
2022-07-26T01:27:40.576Z,25.47
2022-07-26T01:30:10.193Z,25.52
2022-07-26T01:32:37.027Z,25.41
2022-07-26T01:35:05.860Z,25.33
2022-07-26T01:37:32.495Z,25.24
2022-07-26T01:39:59.224Z,25.21
2022-07-26T01:42:25.921Z,25.23
2022-07-26T01:44:52.649Z,25.20
2022-07-26T01:47:19.316Z,25.23
2022-07-26T01:49:45.994Z,25.24
2022-07-26T01:52:12.678Z,25.31
2022-07-26T01:54:39.413Z,25.28
2022-07-26T01:57:06.133Z,25.30
2022-07-26T01:59:32.849Z,25.17
2022-07-26T02:01:59.634Z,25.09
2022-07-26T02:04:45.068Z,25.04
2022-07-26T02:07:13.150Z,25.07
2022-07-26T02:09:40.200Z,25.07
2022-07-26T02:12:07.412Z,25.10
2022-07-26T02:14:34.253Z,25.06
2022-07-26T02:17:00.976Z,25.10
2022-07-26T02:19:28.737Z,25.14
2022-07-26T02:21:56.112Z,25.09
2022-07-26T02:24:23.687Z,25.04
2022-07-26T02:26:50.536Z,25.02
2022-07-26T02:29:17.281Z,25.12
2022-07-26T02:31:48.506Z,25.03
2022-07-26T02:34:16.634Z,25.09
2022-07-26T02:36:43.433Z,25.13
2022-07-26T02:39:10.264Z,25.16
2022-07-26T02:41:37.049Z,25.17
2022-07-26T02:44:03.921Z,25.17
2022-07-26T02:46:30.792Z,25.13
2022-07-26T02:49:00.238Z,25.12
2022-07-26T02:51:28.133Z,25.09
2022-07-26T02:53:55.100Z,24.99
2022-07-26T02:56:21.779Z,24.97
2022-07-26T02:58:48.466Z,24.94
2022-07-26T03:01:17.971Z,24.86
2022-07-26T03:03:50.148Z,24.82
2022-07-26T03:06:17.846Z,24.83
2022-07-26T03:08:44.533Z,24.83
2022-07-26T03:11:12.258Z,24.85
2022-07-26T03:13:39.552Z,24.87
2022-07-26T03:16:07.783Z,24.90
2022-07-26T03:18:34.654Z,24.93
2022-07-26T03:21:01.319Z,25.00
2022-07-26T03:23:28.221Z,25.00
2022-07-26T03:25:54.926Z,24.97
2022-07-26T03:28:21.614Z,24.93
2022-07-26T03:30:48.309Z,24.96
2022-07-26T03:33:15.082Z,24.97
2022-07-26T03:35:41.747Z,24.99
2022-07-26T03:38:08.608Z,24.97
2022-07-26T03:40:35.277Z,24.89
2022-07-26T03:43:02.064Z,24.86
2022-07-26T03:45:29.966Z,24.85
2022-07-26T03:47:56.632Z,24.83
2022-07-26T03:50:23.453Z,24.86
2022-07-26T03:52:50.168Z,24.87
2022-07-26T03:55:35.486Z,24.83
2022-07-26T03:58:02.125Z,24.79
2022-07-26T04:00:28.897Z,24.71
2022-07-26T04:02:55.674Z,24.69
2022-07-26T04:05:23.735Z,24.71
2022-07-26T04:07:53.741Z,24.62
2022-07-26T04:10:22.078Z,24.56
2022-07-26T04:12:49.690Z,24.49
2022-07-26T04:15:19.084Z,24.47
2022-07-26T04:17:48.488Z,24.51
2022-07-26T04:20:15.718Z,24.48
2022-07-26T04:22:42.915Z,24.52
2022-07-26T04:25:10.855Z,24.51
2022-07-26T04:27:38.293Z,24.48
2022-07-26T04:30:12.528Z,24.44
2022-07-26T04:32:41.488Z,24.41
2022-07-26T04:35:08.650Z,24.34
2022-07-26T04:37:42.895Z,24.34
2022-07-26T04:40:11.134Z,24.32
2022-07-26T04:42:39.870Z,24.34
2022-07-26T04:45:08.583Z,24.22
2022-07-26T04:47:35.724Z,24.16
2022-07-26T04:50:04.250Z,24.20
2022-07-26T04:52:30.955Z,24.17
2022-07-26T04:54:57.583Z,24.13
2022-07-26T04:57:24.293Z,24.13
2022-07-26T05:00:03.677Z,24.10
2022-07-26T05:02:37.857Z,24.22
2022-07-26T05:05:05.930Z,24.58
2022-07-26T05:07:47.739Z,24.83
2022-07-26T05:10:16.689Z,25.33
2022-07-26T05:12:43.436Z,25.99
2022-07-26T05:15:13.889Z,26.61
2022-07-26T05:17:42.929Z,27.26
2022-07-26T05:20:11.847Z,27.87
2022-07-26T05:22:38.978Z,28.39
2022-07-26T05:25:06.533Z,28.90
2022-07-26T05:27:33.675Z,29.15
2022-07-26T05:30:00.531Z,28.98
2022-07-26T05:32:28.275Z,28.64
2022-07-26T05:34:54.985Z,28.32
2022-07-26T05:37:21.938Z,28.01
2022-07-26T05:39:48.585Z,27.74
2022-07-26T05:42:15.255Z,27.51
2022-07-26T05:44:42.372Z,27.33
2022-07-26T05:47:10.078Z,27.22
2022-07-26T05:49:40.096Z,27.16
2022-07-26T05:52:08.389Z,27.13
2022-07-26T05:54:35.421Z,27.02
2022-07-26T05:57:02.278Z,27.02
2022-07-26T05:59:29.486Z,26.96
2022-07-26T06:01:56.802Z,26.88
2022-07-26T06:04:25.022Z,26.75
2022-07-26T06:06:54.915Z,26.71
2022-07-26T06:09:27.181Z,26.57
2022-07-26T06:11:53.897Z,26.43
2022-07-26T06:14:20.895Z,26.33
2022-07-26T06:16:48.505Z,26.24
2022-07-26T06:19:15.724Z,26.16
2022-07-26T06:21:42.911Z,26.09
2022-07-26T06:24:10.297Z,26.03
2022-07-26T06:26:37.780Z,25.95
2022-07-26T06:29:04.671Z,25.92
2022-07-26T06:31:31.469Z,25.88
2022-07-26T06:33:58.175Z,25.86
2022-07-26T06:36:30.002Z,25.84
2022-07-26T06:38:57.525Z,25.85
2022-07-26T06:41:24.238Z,25.86
2022-07-26T06:43:50.907Z,25.88
2022-07-26T06:46:17.750Z,25.97
2022-07-26T06:48:47.251Z,26.02
2022-07-26T06:51:14.493Z,26.02
2022-07-26T06:53:41.904Z,25.96
2022-07-26T06:56:08.695Z,25.93
2022-07-26T06:58:35.321Z,25.86
2022-07-26T07:01:02.102Z,25.89
2022-07-26T07:03:28.805Z,25.85
2022-07-26T07:05:55.462Z,25.82
2022-07-26T07:08:23.377Z,25.81
2022-07-26T07:10:50.908Z,25.85
2022-07-26T07:13:18.312Z,25.84
2022-07-26T07:15:45.288Z,25.82
2022-07-26T07:18:12.170Z,25.82
2022-07-26T07:20:40.564Z,25.79
2022-07-26T07:23:08.119Z,25.84
2022-07-26T07:25:34.809Z,25.92
2022-07-26T07:28:01.492Z,25.99
2022-07-26T07:30:28.588Z,26.16
2022-07-26T07:32:56.543Z,26.34
2022-07-26T07:35:23.955Z,26.52
2022-07-26T07:37:53.116Z,26.67
2022-07-26T07:40:21.275Z,26.74
2022-07-26T07:42:48.110Z,26.82
2022-07-26T07:45:15.057Z,26.89
2022-07-26T07:47:41.941Z,26.91
2022-07-26T07:50:09.093Z,27.06
2022-07-26T07:52:35.763Z,27.16
2022-07-26T07:55:28.559Z,27.26
2022-07-26T07:57:49.723Z,27.49
2022-07-26T08:00:19.471Z,27.68
2022-07-26T08:02:54.134Z,27.85
2022-07-26T08:05:21.639Z,27.91
2022-07-26T08:07:49.583Z,28.04
2022-07-26T08:10:19.357Z,28.01
2022-07-26T08:12:46.033Z,28.10
2022-07-26T08:15:18.179Z,28.16
2022-07-26T08:17:52.232Z,28.19
2022-07-26T08:20:20.831Z,28.20
2022-07-26T08:22:50.828Z,28.29
2022-07-26T08:25:17.841Z,28.19
2022-07-26T08:27:51.105Z,28.01
2022-07-26T08:30:29.640Z,27.74
2022-07-26T08:32:56.297Z,27.53
2022-07-26T08:35:23.035Z,27.49
2022-07-26T08:37:50.918Z,27.32
2022-07-26T08:40:17.906Z,27.17
2022-07-26T08:42:52.630Z,27.20
2022-07-26T08:45:27.799Z,27.32
2022-07-26T08:48:16.688Z,27.46
2022-07-26T08:50:42.406Z,27.44
2022-07-26T08:53:12.060Z,27.47
2022-07-26T08:56:04.404Z,27.50
2022-07-26T08:58:25.384Z,27.50
2022-07-26T09:01:09.818Z,27.53
2022-07-26T09:03:39.507Z,27.57
2022-07-26T09:06:26.500Z,27.70
2022-07-26T09:09:10.736Z,27.72
2022-07-26T09:11:37.795Z,27.76
2022-07-26T09:14:06.236Z,27.74
2022-07-26T09:16:37.234Z,27.74
2022-07-26T09:19:22.541Z,27.84
2022-07-26T09:21:50.488Z,27.89
2022-07-26T09:24:35.120Z,27.78
2022-07-26T09:27:04.047Z,27.76
2022-07-26T09:29:32.232Z,27.64
2022-07-26T09:32:22.658Z,27.64
2022-07-26T09:34:58.866Z,27.77
2022-07-26T09:37:47.025Z,27.88
2022-07-26T09:40:16.452Z,28.05
2022-07-26T09:43:00.287Z,28.09
2022-07-26T09:45:29.158Z,27.99
2022-07-26T09:47:55.949Z,27.98
2022-07-26T09:50:25.313Z,28.06
2022-07-26T09:53:08.845Z,28.10
2022-07-26T09:55:56.363Z,28.16
2022-07-26T09:58:24.083Z,28.33
2022-07-26T10:00:50.806Z,28.50
2022-07-26T10:03:17.554Z,28.64
2022-07-26T10:05:44.263Z,28.64
2022-07-26T10:08:12.274Z,28.64
2022-07-26T10:10:55.932Z,28.74
2022-07-26T10:13:23.367Z,28.77
2022-07-26T10:15:51.477Z,28.78
2022-07-26T10:18:36.452Z,28.80
2022-07-26T10:21:16.846Z,28.84
2022-07-26T10:23:46.153Z,28.95
2022-07-26T10:26:31.215Z,28.86
2022-07-26T10:29:18.075Z,28.82
2022-07-26T10:32:00.826Z,28.86
2022-07-26T10:34:38.817Z,28.87
2022-07-26T10:37:11.392Z,28.92
2022-07-26T10:39:39.276Z,28.92
2022-07-26T10:42:10.745Z,28.94
2022-07-26T10:44:42.609Z,29.01
2022-07-26T10:47:09.260Z,29.05
2022-07-26T10:49:41.960Z,29.04
2022-07-26T10:52:11.365Z,29.02
2022-07-26T10:54:56.773Z,29.04
2022-07-26T10:57:24.517Z,29.14
2022-07-26T10:59:56.168Z,29.20
2022-07-26T11:02:32.335Z,29.23
2022-07-26T11:05:01.062Z,29.22
2022-07-26T11:07:29.466Z,29.20
2022-07-26T11:09:57.133Z,29.18
2022-07-26T11:12:23.893Z,29.07
2022-07-26T11:14:51.519Z,29.00
2022-07-26T11:17:25.132Z,28.97
2022-07-26T11:19:51.950Z,28.92
2022-07-26T11:22:21.839Z,28.91
2022-07-26T11:24:48.797Z,28.81
2022-07-26T11:27:15.634Z,28.82
2022-07-26T11:29:42.287Z,28.88
2022-07-26T11:32:21.742Z,28.88
2022-07-26T11:34:58.949Z,28.88
2022-07-26T11:37:25.806Z,28.91
2022-07-26T11:39:52.494Z,28.91
2022-07-26T11:42:21.602Z,28.94
2022-07-26T11:44:50.311Z,28.92
2022-07-26T11:47:25.477Z,28.90
2022-07-26T11:52:40.414Z,28.75
2022-07-26T11:55:07.801Z,28.75
2022-07-26T11:57:34.497Z,28.81
2022-07-26T12:00:01.799Z,28.86
2022-07-26T12:02:30.316Z,28.90
2022-07-26T12:05:18.387Z,28.90
2022-07-26T12:08:04.373Z,28.95
2022-07-26T12:10:31.619Z,29.01
2022-07-26T12:13:16.330Z,29.08
2022-07-26T12:15:50.836Z,29.11
2022-07-26T12:18:29.633Z,29.18
2022-07-26T12:21:06.150Z,29.22
2022-07-26T12:23:49.404Z,29.20
2022-07-26T12:26:27.299Z,29.22
2022-07-26T12:28:55.237Z,29.22
2022-07-26T12:31:31.259Z,29.29
2022-07-26T12:33:58.941Z,29.26
2022-07-26T12:36:28.434Z,29.23
2022-07-26T12:38:59.774Z,29.18
2022-07-26T12:41:34.743Z,29.18
2022-07-26T12:44:01.557Z,29.19
2022-07-26T12:46:32.957Z,29.11
2022-07-26T12:49:00.623Z,29.09
2022-07-26T12:51:27.822Z,29.09
2022-07-26T12:53:54.653Z,29.11
2022-07-26T12:56:21.455Z,29.16
2022-07-26T12:58:48.117Z,29.18
2022-07-26T13:01:14.958Z,29.18
2022-07-26T13:03:41.702Z,29.25
2022-07-26T13:06:08.434Z,29.16
2022-07-26T13:08:35.111Z,29.04
2022-07-26T13:11:01.857Z,29.01
2022-07-26T13:13:30.063Z,29.01
2022-07-26T13:15:56.726Z,29.08
2022-07-26T13:18:23.437Z,29.08
2022-07-26T13:20:50.172Z,29.08
2022-07-26T13:23:21.415Z,29.01
2022-07-26T13:25:49.799Z,28.98
2022-07-26T13:28:17.426Z,29.02
2022-07-26T13:30:45.353Z,29.04
2022-07-26T13:33:12.259Z,29.07
2022-07-26T13:35:41.260Z,29.14
2022-07-26T13:38:08.348Z,29.16
2022-07-26T13:40:35.168Z,29.22
2022-07-26T13:43:01.980Z,29.23
2022-07-26T13:45:29.261Z,29.25
2022-07-26T13:47:59.138Z,29.28
2022-07-26T13:50:27.628Z,29.23
2022-07-26T13:52:56.393Z,29.20
2022-07-26T13:55:23.628Z,29.20
2022-07-26T13:57:57.144Z,29.19
2022-07-26T14:00:28.905Z,29.23
2022-07-26T14:02:58.295Z,29.23
2022-07-26T14:05:25.399Z,29.32
2022-07-26T14:07:52.832Z,29.28
2022-07-26T14:10:20.293Z,29.26
2022-07-26T14:12:47.992Z,29.29
2022-07-26T14:15:19.764Z,29.33
2022-07-26T14:17:49.304Z,29.36
2022-07-26T14:20:17.333Z,29.33
2022-07-26T14:22:44.651Z,29.37
2022-07-26T14:25:11.808Z,29.42
2022-07-26T14:27:38.693Z,29.43
2022-07-26T14:30:06.065Z,29.40
2022-07-26T14:32:32.951Z,29.43
2022-07-26T14:34:59.640Z,29.45
2022-07-26T14:37:44.121Z,29.43
2022-07-26T14:40:14.384Z,29.43
2022-07-26T14:42:41.180Z,29.42
2022-07-26T14:45:09.718Z,29.46
2022-07-26T14:47:36.827Z,29.47
2022-07-26T14:50:07.108Z,29.50
2022-07-26T14:52:36.437Z,29.50
2022-07-26T14:55:03.226Z,29.52
2022-07-26T14:57:29.964Z,29.53
2022-07-26T14:59:56.625Z,29.53
2022-07-26T15:02:23.543Z,29.53
2022-07-26T15:04:50.365Z,29.57
2022-07-26T15:07:16.997Z,29.59
2022-07-26T15:09:43.660Z,29.56
2022-07-26T15:12:10.374Z,29.50
2022-07-26T15:14:37.328Z,29.47
2022-07-26T15:17:05.190Z,29.47
2022-07-26T15:19:31.903Z,29.53
2022-07-26T15:22:02.018Z,29.55
2022-07-26T15:24:29.112Z,29.53
2022-07-26T15:26:55.785Z,29.57
2022-07-26T15:29:22.508Z,29.60
2022-07-26T15:31:49.449Z,29.66
2022-07-26T15:34:16.404Z,29.64
2022-07-26T15:36:43.542Z,29.67
2022-07-26T15:39:18.395Z,29.69
2022-07-26T15:41:47.369Z,29.74
2022-07-26T15:44:17.173Z,29.70
2022-07-26T15:46:45.896Z,29.64
2022-07-26T15:49:15.945Z,29.63
2022-07-26T15:51:43.087Z,29.63
2022-07-26T15:54:11.661Z,29.70
2022-07-26T15:56:38.859Z,29.69
2022-07-26T15:59:09.221Z,29.72
2022-07-26T16:01:37.227Z,29.67
2022-07-26T16:04:05.345Z,29.67
2022-07-26T16:06:35.133Z,29.67
2022-07-26T16:09:19.394Z,29.67
2022-07-26T16:11:47.767Z,29.70
2022-07-26T16:14:18.044Z,29.73
2022-07-26T16:16:45.621Z,29.76
2022-07-26T16:19:12.909Z,29.78
2022-07-26T16:21:40.579Z,29.74
2022-07-26T16:24:08.980Z,29.67
2022-07-26T16:26:36.207Z,29.63
2022-07-26T16:29:03.709Z,29.59
2022-07-26T16:31:30.894Z,29.59
2022-07-26T16:33:57.681Z,29.56
2022-07-26T16:36:24.442Z,29.59
2022-07-26T16:38:51.310Z,29.57
2022-07-26T16:41:18.027Z,29.57
2022-07-26T16:43:44.764Z,29.57
2022-07-26T16:46:11.449Z,29.60
2022-07-26T16:48:38.260Z,29.56
2022-07-26T16:51:04.979Z,29.49
2022-07-26T16:53:31.667Z,29.45
2022-07-26T16:55:58.441Z,29.37
2022-07-26T16:58:25.327Z,29.33
2022-07-26T17:00:52.112Z,29.32
2022-07-26T17:03:19.483Z,29.25
2022-07-26T17:05:46.915Z,29.22
2022-07-26T17:08:13.829Z,29.22
2022-07-26T17:10:40.617Z,29.22
2022-07-26T17:13:07.329Z,29.16
2022-07-26T17:15:34.229Z,29.15
2022-07-26T17:18:01.162Z,29.18
2022-07-26T17:20:27.890Z,29.22
2022-07-26T17:22:54.978Z,29.19
2022-07-26T17:25:21.837Z,29.22
2022-07-26T17:27:48.622Z,29.19
2022-07-26T17:30:15.625Z,29.14
2022-07-26T17:32:42.461Z,29.11
2022-07-26T17:35:09.642Z,29.05
2022-07-26T17:37:36.727Z,29.01
2022-07-26T17:40:05.510Z,28.95
2022-07-26T17:42:35.026Z,28.90
2022-07-26T17:45:01.941Z,28.86
2022-07-26T17:47:30.578Z,28.84
2022-07-26T17:52:53.163Z,28.80
2022-07-26T17:55:20.839Z,28.84
2022-07-26T17:57:48.528Z,28.86
2022-07-26T18:00:19.204Z,28.90
2022-07-26T18:02:46.036Z,28.88
2022-07-26T18:05:12.850Z,28.88
2022-07-26T18:07:40.504Z,28.86
2022-07-26T18:10:08.118Z,28.80
2022-07-26T18:12:35.071Z,28.68
2022-07-26T18:15:01.796Z,28.65
2022-07-26T18:17:28.501Z,28.63
2022-07-26T18:19:55.191Z,28.64
2022-07-26T18:22:23.329Z,28.64
2022-07-26T18:24:50.224Z,28.64
2022-07-26T18:27:16.875Z,28.63
2022-07-26T18:29:43.618Z,28.59
2022-07-26T18:32:10.506Z,28.59
2022-07-26T18:34:37.325Z,28.63
2022-07-26T18:37:05.231Z,28.63
2022-07-26T18:39:32.891Z,28.64
2022-07-26T18:42:00.626Z,28.60
2022-07-26T18:44:27.664Z,28.60
2022-07-26T18:46:56.310Z,28.59
2022-07-26T18:49:23.618Z,28.57
2022-07-26T18:51:58.617Z,28.57
2022-07-26T18:54:27.650Z,28.53
2022-07-26T18:56:55.352Z,28.52
2022-07-26T18:59:22.092Z,28.47
2022-07-26T19:01:48.928Z,28.46
2022-07-26T19:04:17.124Z,28.40
2022-07-26T19:06:45.365Z,28.40
2022-07-26T19:09:13.186Z,28.37
2022-07-26T19:11:40.168Z,28.35
2022-07-26T19:14:06.951Z,28.33
2022-07-26T19:16:33.650Z,28.33
2022-07-26T19:19:00.393Z,28.33
2022-07-26T19:21:27.091Z,28.26
2022-07-26T19:23:53.875Z,28.19
2022-07-26T19:26:20.637Z,28.12
2022-07-26T19:28:47.418Z,28.13
2022-07-26T19:31:14.183Z,28.08
2022-07-26T19:33:41.193Z,28.08
2022-07-26T19:36:08.093Z,27.98
2022-07-26T19:38:34.942Z,27.92
2022-07-26T19:41:01.740Z,27.88
2022-07-26T19:43:28.889Z,27.88
2022-07-26T19:45:55.667Z,27.91
2022-07-26T19:48:22.429Z,27.89
2022-07-26T19:50:51.279Z,27.91
2022-07-26T19:53:18.103Z,27.87
2022-07-26T19:55:44.917Z,27.85
2022-07-26T19:58:12.000Z,27.82
2022-07-26T20:00:38.695Z,27.82
2022-07-26T20:03:05.430Z,27.82
2022-07-26T20:05:32.159Z,27.77
2022-07-26T20:08:00.034Z,27.76
2022-07-26T20:10:31.806Z,27.70
2022-07-26T20:12:59.096Z,27.67
2022-07-26T20:15:26.252Z,27.62
2022-07-26T20:17:53.061Z,27.62
2022-07-26T20:20:20.339Z,27.55
2022-07-26T20:22:47.289Z,27.55
2022-07-26T20:25:19.493Z,27.53
2022-07-26T20:27:49.937Z,27.54
2022-07-26T20:30:17.644Z,27.51
2022-07-26T20:32:44.649Z,27.46
2022-07-26T20:35:11.575Z,27.37
2022-07-26T20:37:38.367Z,27.32
2022-07-26T20:40:07.139Z,27.26
2022-07-26T20:42:36.213Z,27.25
2022-07-26T20:45:05.638Z,27.23
2022-07-26T20:47:40.409Z,27.20
2022-07-26T20:50:12.443Z,27.10
2022-07-26T20:52:40.756Z,27.06
2022-07-26T20:55:08.253Z,26.99
2022-07-26T20:57:35.270Z,26.94
2022-07-26T21:00:02.799Z,26.96
2022-07-26T21:02:29.511Z,26.89
2022-07-26T21:04:56.254Z,26.89
2022-07-26T21:07:24.254Z,26.88
2022-07-26T21:10:11.220Z,26.87
2022-07-26T21:12:37.923Z,26.87
2022-07-26T21:15:05.493Z,26.85
2022-07-26T21:17:34.411Z,26.91
2022-07-26T21:20:02.941Z,26.87
2022-07-26T21:22:29.801Z,26.89
2022-07-26T21:24:56.995Z,26.84
2022-07-26T21:27:23.762Z,26.79
2022-07-26T21:29:50.448Z,26.75
2022-07-26T21:32:17.093Z,26.72
2022-07-26T21:34:43.786Z,26.79
2022-07-26T21:37:10.516Z,26.69
2022-07-26T21:39:37.176Z,26.68
2022-07-26T21:42:04.554Z,26.62
2022-07-26T21:44:31.236Z,26.60
2022-07-26T21:46:57.894Z,26.54
2022-07-26T21:49:24.621Z,26.52
2022-07-26T21:51:51.286Z,26.52
2022-07-26T21:54:18.020Z,26.54
2022-07-26T21:56:44.665Z,26.51
2022-07-26T21:59:11.587Z,26.50
2022-07-26T22:01:38.537Z,26.51
2022-07-26T22:04:05.272Z,26.50
2022-07-26T22:06:31.939Z,26.48
2022-07-26T22:08:58.820Z,26.47
2022-07-26T22:11:25.538Z,26.44
2022-07-26T22:13:52.279Z,26.41
2022-07-26T22:16:19.016Z,26.44
2022-07-26T22:18:45.795Z,26.41
2022-07-26T22:21:12.500Z,26.40
2022-07-26T22:23:39.191Z,26.39
2022-07-26T22:26:06.420Z,26.37
2022-07-26T22:28:34.330Z,26.37
2022-07-26T22:31:01.402Z,26.39
2022-07-26T22:33:28.038Z,26.39
2022-07-26T22:35:54.724Z,26.37
2022-07-26T22:38:21.472Z,26.39
2022-07-26T22:40:48.190Z,26.39
2022-07-26T22:43:15.256Z,26.41
2022-07-26T22:45:42.697Z,26.40
2022-07-26T22:48:09.929Z,26.33
2022-07-26T22:50:37.336Z,26.34
2022-07-26T22:53:04.160Z,26.31
2022-07-26T22:55:31.005Z,26.30
2022-07-26T22:57:57.907Z,26.33
2022-07-26T23:00:25.362Z,26.31
2022-07-26T23:02:52.292Z,26.30
2022-07-26T23:05:19.715Z,26.31
2022-07-26T23:07:48.312Z,26.30
2022-07-26T23:10:16.222Z,26.33
2022-07-26T23:12:43.228Z,26.31
2022-07-26T23:15:10.833Z,26.29
2022-07-26T23:17:37.850Z,26.24
2022-07-26T23:20:06.573Z,26.20
2022-07-26T23:22:33.773Z,26.16
2022-07-26T23:25:00.542Z,26.16
2022-07-26T23:27:27.407Z,26.17
2022-07-26T23:29:54.076Z,26.16
2022-07-26T23:32:20.791Z,26.10
2022-07-26T23:34:47.474Z,26.09
2022-07-26T23:37:14.382Z,26.06
2022-07-26T23:39:41.071Z,26.06
2022-07-26T23:42:07.921Z,26.05
2022-07-26T23:44:34.672Z,26.02
2022-07-26T23:47:01.799Z,26.02
2022-07-26T23:49:28.777Z,26.03
2022-07-26T23:51:55.490Z,26.02
2022-07-26T23:54:22.194Z,26.02
2022-07-26T23:56:48.919Z,25.99
2022-07-26T23:59:15.920Z,26.02
